Time;durP1;ratioP1;P1;durP2;ratioP2;P2;SDS_P1;SDS_P2;PMS_P1;PMS_P2;Temp;Humidity;BMP_temperature;BMP_pressure;BME280_temperature;BME280_humidity;BME280_pressure;Samples;Min_cycle;Max_cycle;Signal;HPM_P1;HPM_P2
2022/03/12 00:00:01;;;;;;;10.15;5.90;;;10.90;47.20;;;;;;6135495;23;20425;-86
2022/03/12 00:02:32;;;;;;;11.07;5.78;;;11.00;47.40;;;;;;6160001;23;20001;-85
2022/03/12 00:04:59;;;;;;;13.35;6.70;;;11.00;47.30;;;;;;6111732;23;20025;-85
2022/03/12 00:07:27;;;;;;;12.50;5.65;;;10.90;47.20;;;;;;6159610;23;20336;-85
2022/03/12 00:09:54;;;;;;;10.88;6.15;;;11.00;47.30;;;;;;6135868;23;20009;-85
2022/03/12 00:12:23;;;;;;;12.25;6.53;;;11.00;47.10;;;;;;6159644;23;20313;-85
2022/03/12 00:14:55;;;;;;;10.52;6.00;;;10.90;47.10;;;;;;6135835;23;20087;-85
2022/03/12 00:17:22;;;;;;;10.82;5.70;;;11.00;47.80;;;;;;6135317;23;20005;-85
2022/03/12 00:19:48;;;;;;;10.75;5.70;;;10.90;47.20;;;;;;6111350;23;20368;-85
2022/03/12 00:22:14;;;;;;;10.43;6.00;;;10.90;47.30;;;;;;6110308;23;20092;-85
2022/03/12 00:24:40;;;;;;;10.13;6.07;;;10.90;47.20;;;;;;6110627;23;20079;-87
2022/03/12 00:27:09;;;;;;;10.57;5.65;;;10.90;47.30;;;;;;6111291;23;20459;-85
2022/03/12 00:29:35;;;;;;;11.73;6.10;;;10.90;48.20;;;;;;6160279;23;20005;-85
2022/03/12 00:32:02;;;;;;;10.48;5.75;;;10.90;47.40;;;;;;6110519;23;20021;-85
2022/03/12 00:34:27;;;;;;;12.25;6.00;;;10.90;47.70;;;;;;6134975;23;20009;-84
2022/03/12 00:36:53;;;;;;;11.38;6.13;;;10.90;47.40;;;;;;6135197;23;20035;-85
2022/03/12 00:39:19;;;;;;;12.30;6.45;;;10.90;47.10;;;;;;6110967;23;20059;-85
2022/03/12 00:41:45;;;;;;;11.70;5.50;;;10.90;47.20;;;;;;6159926;23;20001;-85
2022/03/12 00:44:19;;;;;;;12.95;6.35;;;10.80;47.40;;;;;;6159713;23;20005;-85
2022/03/12 00:46:45;;;;;;;10.18;6.10;;;10.80;47.00;;;;;;6159854;23;20001;-85
2022/03/12 00:49:11;;;;;;;10.57;5.90;;;10.80;47.50;;;;;;6135086;23;20036;-85
2022/03/12 00:51:41;;;;;;;12.85;6.28;;;10.80;47.60;;;;;;6135065;23;20421;-85
2022/03/12 00:54:07;;;;;;;9.67;6.53;;;10.80;48.20;;;;;;6135150;23;20005;-85
2022/03/12 00:56:33;;;;;;;10.35;6.07;;;10.80;47.90;;;;;;6159319;23;20435;-85
2022/03/12 00:58:59;;;;;;;9.30;6.25;;;10.80;47.90;;;;;;6159450;23;20013;-85
2022/03/12 01:01:28;;;;;;;13.13;5.95;;;10.80;48.10;;;;;;6135033;23;20286;-85
2022/03/12 01:03:54;;;;;;;9.25;5.68;;;10.80;48.30;;;;;;6159384;23;20027;-86
2022/03/12 01:06:19;;;;;;;10.00;5.90;;;10.70;48.40;;;;;;6134904;23;20462;-85
2022/03/12 01:08:47;;;;;;;9.95;6.07;;;10.70;48.70;;;;;;6134992;23;20046;-85
2022/03/12 01:14:38;;;;;;;11.63;5.50;;;10.70;48.80;;;;;;6185445;23;20096;-86
2022/03/12 01:17:05;;;;;;;10.05;5.90;;;10.60;48.80;;;;;;6135482;23;20010;-85
2022/03/12 01:19:31;;;;;;;10.95;5.75;;;10.60;49.20;;;;;;6159431;23;20005;-85
2022/03/12 01:21:57;;;;;;;13.88;5.97;;;10.60;49.40;;;;;;6134997;23;20002;-86
2022/03/12 01:24:37;;;;;;;8.30;5.22;;;10.60;49.50;;;;;;6110649;23;20012;-86
2022/03/12 01:27:04;;;;;;;16.08;6.47;;;10.60;49.60;;;;;;6135181;23;20387;-85
2022/03/12 01:29:29;;;;;;;10.90;6.00;;;10.60;50.10;;;;;;6110570;23;20130;-85
2022/03/12 01:31:55;;;;;;;11.73;6.53;;;10.60;49.90;;;;;;6129685;23;20014;-85
2022/03/12 01:34:21;;;;;;;9.57;5.70;;;10.50;49.40;;;;;;6156229;23;20061;-85
2022/03/12 01:36:46;;;;;;;11.73;6.68;;;10.50;49.50;;;;;;6141575;23;20011;-85
2022/03/12 01:39:12;;;;;;;10.25;5.75;;;10.50;49.70;;;;;;6141614;23;20012;-85
2022/03/12 01:41:42;;;;;;;13.80;7.35;;;10.50;49.30;;;;;;6141520;23;20039;-85
2022/03/12 01:44:08;;;;;;;13.02;5.93;;;10.50;49.70;;;;;;6141769;23;20495;-85
2022/03/12 01:46:38;;;;;;;12.30;6.57;;;10.60;50.10;;;;;;6190870;23;20084;-85
2022/03/12 01:49:13;;;;;;;14.52;6.55;;;10.50;49.70;;;;;;6217659;23;20385;-85
2022/03/12 01:51:40;;;;;;;12.80;6.22;;;10.50;50.00;;;;;;6190820;23;20066;-85
2022/03/12 01:54:06;;;;;;;11.68;6.35;;;10.50;50.00;;;;;;6168617;23;20001;-86
2022/03/12 01:56:34;;;;;;;11.48;6.70;;;10.60;50.30;;;;;;6166123;23;20051;-85
2022/03/12 01:59:01;;;;;;;11.48;6.80;;;10.60;50.80;;;;;;6166404;23;20052;-85
2022/03/12 02:01:31;;;;;;;9.13;6.18;;;10.50;50.70;;;;;;6190819;23;20022;-85
2022/03/12 02:03:57;;;;;;;11.00;6.55;;;10.60;51.10;;;;;;6165900;23;20005;-85
2022/03/12 02:06:24;;;;;;;10.80;5.82;;;10.60;51.90;;;;;;6191043;23;20032;-85
2022/03/12 02:08:54;;;;;;;9.55;6.10;;;10.60;52.60;;;;;;6190762;23;20001;-85
2022/03/12 02:11:25;;;;;;;12.77;6.68;;;10.50;52.70;;;;;;6166689;23;20008;-85
2022/03/12 02:13:59;;;;;;;11.88;6.82;;;10.60;53.40;;;;;;6190988;23;20372;-85
2022/03/12 02:16:25;;;;;;;12.18;6.72;;;10.60;53.60;;;;;;6190681;23;20045;-85
2022/03/12 02:18:51;;;;;;;9.85;6.50;;;10.50;54.10;;;;;;6165850;23;20004;-85
2022/03/12 02:21:38;;;;;;;11.40;7.13;;;10.50;54.70;;;;;;6190042;23;20011;-85
2022/03/12 02:24:09;;;;;;;12.43;7.28;;;10.50;55.60;;;;;;6190652;23;20044;-85
2022/03/12 02:26:36;;;;;;;11.50;6.75;;;10.40;54.90;;;;;;6165835;23;20013;-84
2022/03/12 02:29:02;;;;;;;10.30;6.70;;;10.40;54.90;;;;;;6166505;23;20009;-85
2022/03/12 02:31:30;;;;;;;13.02;6.53;;;10.40;55.20;;;;;;6165507;23;20023;-85
2022/03/12 02:34:02;;;;;;;11.07;7.13;;;10.30;55.90;;;;;;6190822;23;20084;-85
2022/03/12 02:36:29;;;;;;;11.45;6.45;;;10.30;56.00;;;;;;6190496;23;20005;-85
2022/03/12 02:38:55;;;;;;;13.13;6.70;;;10.30;55.30;;;;;;6190325;23;20000;-85
2022/03/12 02:41:24;;;;;;;11.32;6.93;;;10.30;56.10;;;;;;6190653;23;20008;-85
2022/03/12 02:43:50;;;;;;;19.88;7.18;;;10.30;56.00;;;;;;6190815;23;20012;-85
2022/03/12 02:46:16;;;;;;;10.25;6.25;;;10.30;56.30;;;;;;6189851;23;20440;-86
2022/03/12 02:48:49;;;;;;;13.25;6.68;;;10.30;56.50;;;;;;6141384;23;20011;-84
2022/03/12 02:51:16;;;;;;;11.45;6.40;;;10.30;56.90;;;;;;6190391;23;20008;-85
2022/03/12 02:53:42;;;;;;;10.90;6.80;;;10.20;56.60;;;;;;6141526;23;20360;-85
2022/03/12 02:56:08;;;;;;;11.20;6.55;;;10.20;56.60;;;;;;6165719;23;20015;-85
2022/03/12 02:58:33;;;;;;;11.98;6.68;;;10.20;56.10;;;;;;6165569;23;20005;-86
2022/03/12 03:01:01;;;;;;;11.48;7.28;;;10.20;57.20;;;;;;6141237;23;20087;-86
2022/03/12 03:03:26;;;;;;;15.57;6.68;;;10.20;56.60;;;;;;6165553;23;20012;-86
2022/03/12 03:05:54;;;;;;;10.90;7.03;;;10.20;56.30;;;;;;6140992;23;20012;-85
2022/03/12 03:08:21;;;;;;;14.38;6.78;;;10.20;56.70;;;;;;6141600;23;20015;-86
2022/03/12 03:10:50;;;;;;;14.98;7.05;;;10.20;56.30;;;;;;6165703;23;20005;-85
2022/03/12 03:13:19;;;;;;;12.38;6.78;;;10.20;56.30;;;;;;6190114;23;20053;-85
2022/03/12 03:15:55;;;;;;;16.23;7.07;;;10.20;56.00;;;;;;6190185;23;20432;-86
2022/03/12 03:18:24;;;;;;;10.75;6.70;;;10.20;55.70;;;;;;6190270;23;20363;-85
2022/03/12 03:20:52;;;;;;;15.05;7.18;;;10.20;55.90;;;;;;6190048;23;20004;-85
2022/03/12 03:23:21;;;;;;;13.90;7.65;;;10.20;55.90;;;;;;6189980;23;20011;-85
2022/03/12 03:25:47;;;;;;;13.40;7.75;;;10.30;56.10;;;;;;6189959;23;20009;-85
2022/03/12 03:28:14;;;;;;;15.10;7.28;;;10.30;56.30;;;;;;6189995;23;20000;-86
2022/03/12 03:30:41;;;;;;;12.18;6.97;;;10.30;56.30;;;;;;6189978;23;20016;-85
2022/03/12 03:33:09;;;;;;;15.23;7.22;;;10.30;56.10;;;;;;6165643;23;20012;-85
2022/03/12 03:35:36;;;;;;;13.82;7.63;;;10.30;56.00;;;;;;6216980;23;20060;-86
2022/03/12 03:38:02;;;;;;;11.27;7.22;;;10.30;56.20;;;;;;6190154;23;20416;-85
2022/03/12 03:40:27;;;;;;;13.63;7.53;;;10.20;56.30;;;;;;6165534;23;20000;-86
2022/03/12 03:42:53;;;;;;;13.25;7.43;;;10.30;56.10;;;;;;6165556;23;20063;-85
2022/03/12 03:45:29;;;;;;;15.30;7.88;;;10.20;56.40;;;;;;6190174;23;20066;-85
2022/03/12 03:47:56;;;;;;;13.00;7.75;;;10.20;56.20;;;;;;6190446;23;20000;-85
2022/03/12 03:50:25;;;;;;;13.98;8.15;;;10.30;56.30;;;;;;6190544;23;20031;-85
2022/03/12 03:52:52;;;;;;;13.00;7.55;;;10.30;55.90;;;;;;6165518;23;20031;-85
2022/03/12 03:55:18;;;;;;;14.80;7.75;;;10.30;56.20;;;;;;6165347;23;20424;-85
2022/03/12 03:57:43;;;;;;;12.70;7.38;;;10.30;56.10;;;;;;6165194;23;20008;-85
2022/03/12 04:00:11;;;;;;;14.73;7.78;;;10.30;56.00;;;;;;6165016;23;20005;-85
2022/03/12 04:02:36;;;;;;;14.95;8.02;;;10.30;55.80;;;;;;6165034;23;20005;-85
2022/03/12 04:05:02;;;;;;;12.57;7.85;;;10.30;56.50;;;;;;6140330;23;20061;-85
2022/03/12 04:07:28;;;;;;;19.45;7.75;;;10.30;56.60;;;;;;6164988;23;20009;-85
2022/03/12 04:09:54;;;;;;;11.95;7.90;;;10.30;56.80;;;;;;6165194;23;20012;-85
2022/03/12 04:12:19;;;;;;;14.30;7.78;;;10.30;56.60;;;;;;6165028;23;20047;-85
2022/03/12 04:14:45;;;;;;;14.55;8.32;;;10.20;57.00;;;;;;6140273;23;20333;-85
2022/03/12 04:17:15;;;;;;;14.18;8.35;;;10.30;56.70;;;;;;6140442;23;20135;-85
2022/03/12 04:19:41;;;;;;;14.60;8.70;;;10.30;57.10;;;;;;6142491;23;20012;-85
2022/03/12 04:22:07;;;;;;;13.93;7.60;;;10.30;57.40;;;;;;6165907;23;20004;-85
2022/03/12 04:24:35;;;;;;;10.98;7.18;;;10.30;57.70;;;;;;6165128;23;20013;-85
2022/03/12 04:27:02;;;;;;;14.57;7.97;;;10.20;57.80;;;;;;6190155;23;20015;-86
2022/03/12 04:29:27;;;;;;;15.50;7.72;;;10.20;58.30;;;;;;6190154;23;20035;-86
2022/03/12 04:31:53;;;;;;;14.20;8.00;;;10.30;58.50;;;;;;6189460;23;20091;-85
2022/03/12 04:34:19;;;;;;;12.85;7.53;;;10.20;58.60;;;;;;6164632;23;20329;-86
2022/03/12 04:36:46;;;;;;;12.23;7.50;;;10.30;59.10;;;;;;6189997;23;20076;-86
2022/03/12 04:39:12;;;;;;;14.05;8.23;;;10.30;59.20;;;;;;6164858;23;20016;-86
2022/03/12 04:41:40;;;;;;;13.77;8.00;;;10.30;59.30;;;;;;6189748;23;20310;-86
2022/03/12 04:44:07;;;;;;;12.63;8.25;;;10.30;59.50;;;;;;6189652;23;20009;-86
2022/03/12 04:46:34;;;;;;;13.27;8.40;;;10.30;59.60;;;;;;6140260;23;20017;-86
2022/03/12 04:49:00;;;;;;;13.45;8.30;;;10.20;59.70;;;;;;6190036;23;20008;-85
2022/03/12 04:51:28;;;;;;;14.10;7.50;;;10.30;59.70;;;;;;6217268;23;20024;-85
2022/03/12 04:54:00;;;;;;;13.38;8.68;;;10.30;60.00;;;;;;6142700;23;20008;-85
2022/03/12 04:56:27;;;;;;;15.00;8.52;;;10.20;60.00;;;;;;6167856;23;20099;-85
2022/03/12 04:58:54;;;;;;;13.00;8.43;;;10.20;59.90;;;;;;6202243;23;20401;-85
2022/03/12 05:01:25;;;;;;;13.93;8.23;;;10.20;59.70;;;;;;6171493;23;20340;-85
2022/03/12 05:03:52;;;;;;;11.85;7.25;;;10.10;59.80;;;;;;6191186;23;20004;-85
2022/03/12 05:06:19;;;;;;;14.43;8.45;;;10.10;59.90;;;;;;6191574;23;20001;-85
2022/03/12 05:08:46;;;;;;;15.43;7.68;;;10.10;60.10;;;;;;6192706;23;20001;-86
2022/03/12 05:11:12;;;;;;;18.05;9.05;;;10.00;60.10;;;;;;6168908;23;20009;-86
2022/03/12 05:13:38;;;;;;;16.33;7.85;;;10.00;60.30;;;;;;6193509;23;20376;-86
2022/03/12 05:16:06;;;;;;;14.43;7.32;;;9.90;60.40;;;;;;6144857;23;20091;-86
2022/03/12 05:18:36;;;;;;;15.30;8.32;;;9.90;60.40;;;;;;6221448;23;20413;-86
2022/03/12 05:21:02;;;;;;;13.65;8.48;;;9.90;60.70;;;;;;6191824;23;20474;-86
2022/03/12 05:23:28;;;;;;;16.95;8.68;;;9.90;60.60;;;;;;6191004;23;20309;-85
2022/03/12 05:25:54;;;;;;;14.85;7.78;;;9.80;60.60;;;;;;6192437;23;20087;-85
2022/03/12 05:28:29;;;;;;;13.40;8.07;;;9.80;61.20;;;;;;6192402;23;20008;-85
2022/03/12 05:30:57;;;;;;;12.77;8.10;;;9.70;61.20;;;;;;6191510;23;20013;-85
2022/03/12 05:33:24;;;;;;;17.73;7.30;;;9.70;61.30;;;;;;6191329;23;20344;-85
2022/03/12 05:35:51;;;;;;;17.48;7.97;;;9.70;62.00;;;;;;6190956;23;20016;-85
2022/03/12 05:38:17;;;;;;;11.77;8.13;;;9.70;61.60;;;;;;6217876;23;19997;-85
2022/03/12 05:40:43;;;;;;;14.65;8.35;;;9.60;62.00;;;;;;6166445;23;20032;-86
2022/03/12 05:43:14;;;;;;;13.23;8.27;;;9.60;62.00;;;;;;6166488;23;20004;-86
2022/03/12 05:45:44;;;;;;;12.40;7.68;;;9.60;62.20;;;;;;6167319;23;20008;-86
2022/03/12 05:48:10;;;;;;;14.25;7.78;;;9.60;62.30;;;;;;6192892;23;20011;-86
2022/03/12 05:50:37;;;;;;;14.43;7.55;;;9.50;62.40;;;;;;6142525;23;20004;-86
2022/03/12 05:53:08;;;;;;;13.75;7.80;;;9.50;62.50;;;;;;6192271;23;20015;-86
2022/03/12 05:55:39;;;;;;;16.48;8.82;;;9.50;62.50;;;;;;6192046;23;20004;-86
2022/03/12 05:58:05;;;;;;;;;;;9.50;62.80;;;;;;6191624;23;20016;-86
2022/03/12 06:00:32;;;;;;;16.02;7.75;;;9.40;63.00;;;;;;6166441;23;19904;-86
2022/03/12 06:02:59;;;;;;;13.77;8.18;;;9.40;62.80;;;;;;6166883;23;20087;-86
2022/03/12 06:05:26;;;;;;;12.52;7.85;;;9.30;62.90;;;;;;6167813;23;20013;-89
2022/03/12 06:07:52;;;;;;;15.07;7.82;;;9.30;63.20;;;;;;6191685;23;20049;-89
2022/03/12 06:10:29;;;;;;;13.13;7.57;;;9.30;63.10;;;;;;6192079;23;20438;-88
2022/03/12 06:12:58;;;;;;;14.48;8.73;;;9.30;63.50;;;;;;6191436;23;20012;-88
2022/03/12 06:15:26;;;;;;;12.43;7.80;;;9.20;63.60;;;;;;6191356;23;20005;-88
2022/03/12 06:17:52;;;;;;;15.00;8.02;;;9.10;64.00;;;;;;6191358;23;20000;-89
2022/03/12 06:20:20;;;;;;;11.32;7.53;;;9.20;64.30;;;;;;6189761;23;20084;-88
2022/03/12 06:22:47;;;;;;;15.90;7.78;;;9.20;64.80;;;;;;6166897;23;20000;-89
2022/03/12 06:25:15;;;;;;;14.60;7.60;;;9.10;64.90;;;;;;6191354;23;20083;-88
2022/03/12 06:27:42;;;;;;;12.57;7.85;;;9.10;65.20;;;;;;6191824;23;20055;-88
2022/03/12 06:30:10;;;;;;;15.80;8.07;;;9.10;65.30;;;;;;6217739;23;20001;-88
2022/03/12 06:32:42;;;;;;;14.30;7.82;;;9.10;65.60;;;;;;6191028;23;20036;-88
2022/03/12 06:35:08;;;;;;;15.23;8.52;;;9.10;65.80;;;;;;6168598;23;20012;-89
2022/03/12 06:37:34;;;;;;;13.18;7.88;;;9.10;65.90;;;;;;6166529;23;20455;-89
2022/03/12 06:40:00;;;;;;;12.55;7.97;;;9.10;65.90;;;;;;6218120;23;20080;-89
2022/03/12 06:42:27;;;;;;;12.70;7.72;;;9.10;66.00;;;;;;6191593;23;20428;-89
2022/03/12 06:44:56;;;;;;;13.15;7.70;;;9.10;65.80;;;;;;6167303;23;20074;-89
2022/03/12 06:47:31;;;;;;;11.68;7.72;;;9.10;65.90;;;;;;6168163;23;20017;-89
2022/03/12 06:49:58;;;;;;;13.02;7.90;;;9.10;66.10;;;;;;6168390;23;20008;-88
2022/03/12 06:52:28;;;;;;;12.45;8.20;;;9.10;66.10;;;;;;6192195;23;20012;-88
2022/03/12 06:54:56;;;;;;;11.57;7.30;;;9.10;66.00;;;;;;6191336;23;20004;-88
2022/03/12 06:57:22;;;;;;;11.82;7.15;;;9.10;66.10;;;;;;6167043;23;20000;-89
2022/03/12 06:59:48;;;;;;;12.73;7.93;;;9.10;66.40;;;;;;6142995;23;20001;-89
2022/03/12 07:02:14;;;;;;;12.25;8.13;;;9.20;66.30;;;;;;6191260;23;20024;-89
2022/03/12 07:04:40;;;;;;;16.73;8.52;;;9.20;66.50;;;;;;6170732;23;20036;-88
2022/03/12 07:07:06;;;;;;;13.65;8.00;;;9.20;66.70;;;;;;6169217;23;20491;-89
2022/03/12 07:09:33;;;;;;;11.02;7.35;;;9.20;66.70;;;;;;6142735;23;20087;-89
2022/03/12 07:12:00;;;;;;;13.27;7.70;;;9.20;66.90;;;;;;6191467;23;20015;-89
2022/03/12 07:14:26;;;;;;;12.75;7.30;;;9.20;67.00;;;;;;6166899;23;20005;-89
2022/03/12 07:16:52;;;;;;;13.80;7.88;;;9.20;67.00;;;;;;6166381;23;20015;-89
2022/03/12 07:19:18;;;;;;;13.43;7.40;;;9.20;67.10;;;;;;6191711;23;20000;-89
2022/03/12 07:21:44;;;;;;;12.82;6.82;;;9.30;67.20;;;;;;6167379;23;20001;-89
2022/03/12 07:24:09;;;;;;;13.50;7.28;;;9.30;67.40;;;;;;6191482;23;20011;-89
2022/03/12 07:26:35;;;;;;;16.73;8.00;;;9.30;67.60;;;;;;6141843;23;20104;-89
2022/03/12 07:29:01;;;;;;;12.48;7.80;;;9.30;67.90;;;;;;6142710;23;20014;-89
2022/03/12 07:31:27;;;;;;;11.95;7.53;;;9.30;68.10;;;;;;6165857;23;20103;-89
2022/03/12 07:33:52;;;;;;;14.15;7.25;;;9.30;68.60;;;;;;6141936;23;20004;-89
2022/03/12 07:36:18;;;;;;;15.52;7.50;;;9.40;68.80;;;;;;6166008;23;20440;-90
2022/03/12 07:38:45;;;;;;;11.90;7.82;;;9.40;69.00;;;;;;6191116;23;20015;-90
2022/03/12 07:41:10;;;;;;;11.27;7.72;;;9.40;68.90;;;;;;6191449;23;19996;-90
2022/03/12 07:43:36;;;;;;;13.35;7.65;;;9.50;69.00;;;;;;6166060;23;20066;-90
2022/03/12 07:46:03;;;;;;;11.10;7.63;;;9.50;68.90;;;;;;6166137;23;20035;-90
2022/03/12 07:48:28;;;;;;;11.65;7.60;;;9.50;69.30;;;;;;6166287;23;20012;-91
2022/03/12 07:50:55;;;;;;;13.05;7.95;;;9.60;70.20;;;;;;6191279;23;20009;-90
2022/03/12 07:53:20;;;;;;;12.73;7.70;;;9.60;70.00;;;;;;6165853;23;20425;-90
2022/03/12 07:55:46;;;;;;;12.00;6.90;;;9.60;70.10;;;;;;6190600;23;20027;-91
2022/03/12 07:58:14;;;;;;;10.65;7.03;;;9.60;70.30;;;;;;6141589;23;20012;-90
2022/03/12 08:00:40;;;;;;;13.25;7.43;;;9.70;71.20;;;;;;6141880;23;20012;-90
2022/03/12 08:03:08;;;;;;;11.50;7.45;;;9.70;71.30;;;;;;6190908;23;20039;-90
2022/03/12 08:05:35;;;;;;;14.43;7.30;;;9.70;71.50;;;;;;6142539;23;20008;-90
2022/03/12 08:08:02;;;;;;;15.35;7.38;;;9.70;71.70;;;;;;6166086;23;20083;-90
2022/03/12 08:10:29;;;;;;;12.40;7.00;;;9.80;72.10;;;;;;6141686;23;20008;-89
2022/03/12 08:12:57;;;;;;;12.57;7.53;;;9.80;72.70;;;;;;6190734;23;20008;-90
2022/03/12 08:15:23;;;;;;;12.32;7.32;;;9.90;72.90;;;;;;6193184;23;20004;-90
2022/03/12 08:17:48;;;;;;;12.00;7.35;;;9.90;73.60;;;;;;6166553;23;20096;-90
2022/03/12 08:20:15;;;;;;;10.73;7.00;;;10.00;74.30;;;;;;6165967;23;20005;-91
2022/03/12 08:22:45;;;;;;;11.55;7.00;;;10.10;74.80;;;;;;6191006;23;20000;-90
2022/03/12 08:25:13;;;;;;;13.50;8.00;;;10.10;75.40;;;;;;6190492;23;20360;-90
2022/03/12 08:27:40;;;;;;;10.15;7.05;;;10.20;76.20;;;;;;6190923;23;20015;-91
2022/03/12 08:30:08;;;;;;;13.23;6.65;;;10.30;76.80;;;;;;6217601;23;20508;-91
2022/03/12 08:32:36;;;;;;;11.65;6.50;;;10.40;77.10;;;;;;6191382;23;20028;-91
2022/03/12 08:35:05;;;;;;;10.05;6.28;;;10.50;77.70;;;;;;6192661;23;20005;-91
2022/03/12 08:37:31;;;;;;;11.45;6.45;;;10.60;78.10;;;;;;6191758;23;20440;-91
2022/03/12 08:39:57;;;;;;;11.20;6.50;;;10.70;78.90;;;;;;6167000;23;20001;-90
2022/03/12 08:42:24;;;;;;;11.05;5.55;;;10.80;80.30;;;;;;6192994;23;20008;-90
2022/03/12 08:44:50;;;;;;;8.13;5.28;;;10.80;80.80;;;;;;6193070;23;20088;-90
2022/03/12 08:47:16;;;;;;;8.48;5.80;;;10.90;81.10;;;;;;6166217;23;20015;-92
2022/03/12 08:49:41;;;;;;;9.63;5.38;;;11.00;81.50;;;;;;6194915;23;20013;-90
2022/03/12 08:52:07;;;;;;;9.32;6.05;;;11.10;81.10;;;;;;6169144;23;20008;-90
2022/03/12 08:54:33;;;;;;;8.23;5.63;;;11.10;80.90;;;;;;6167801;23;20016;-88
2022/03/12 08:56:59;;;;;;;11.90;6.15;;;11.10;81.20;;;;;;6167630;23;20013;-88
2022/03/12 08:59:24;;;;;;;11.13;6.68;;;11.20;81.50;;;;;;6196152;23;20421;-87
2022/03/12 09:01:51;;;;;;;8.60;6.22;;;11.30;81.90;;;;;;6169756;23;20001;-88
2022/03/12 09:04:17;;;;;;;10.15;6.15;;;11.30;81.60;;;;;;6145452;23;20396;-89
2022/03/12 09:06:43;;;;;;;9.40;6.20;;;11.30;81.50;;;;;;6164659;23;20005;-88
2022/03/12 09:09:09;;;;;;;10.07;5.78;;;11.40;81.60;;;;;;6214221;23;20039;-86
2022/03/12 09:11:35;;;;;;;8.57;5.90;;;11.40;82.10;;;;;;6137986;23;20420;-88
2022/03/12 09:14:00;;;;;;;10.13;7.00;;;11.40;82.80;;;;;;6139574;23;20028;-88
2022/03/12 09:16:26;;;;;;;12.07;5.90;;;11.50;83.10;;;;;;6139671;23;20008;-88
2022/03/12 09:18:52;;;;;;;11.85;6.43;;;11.50;83.30;;;;;;6188257;23;20004;-87
2022/03/12 09:21:18;;;;;;;12.43;6.10;;;11.70;83.20;;;;;;6139712;23;20020;-88
2022/03/12 09:23:43;;;;;;;9.27;5.88;;;11.70;83.50;;;;;;6189779;23;20001;-88
2022/03/12 09:26:10;;;;;;;9.75;6.57;;;11.80;83.10;;;;;;6140184;23;20013;-88
2022/03/12 09:28:35;;;;;;;8.65;5.93;;;11.80;83.50;;;;;;6140496;23;20031;-88
2022/03/12 09:31:01;;;;;;;8.50;5.75;;;11.90;83.40;;;;;;6140428;23;20020;-88
2022/03/12 09:33:27;;;;;;;8.13;5.60;;;11.90;83.20;;;;;;6191123;23;20076;-88
2022/03/12 09:35:56;;;;;;;12.18;6.03;;;12.00;83.90;;;;;;6189980;23;20105;-88
2022/03/12 09:38:22;;;;;;;10.77;5.50;;;12.10;83.10;;;;;;6191584;23;20001;-86
2022/03/12 09:40:48;;;;;;;9.30;6.13;;;12.10;83.50;;;;;;6166166;23;20020;-88
2022/03/12 09:43:14;;;;;;;10.05;5.65;;;12.10;83.70;;;;;;6165924;23;20036;-88
2022/03/12 09:45:39;;;;;;;9.10;5.85;;;12.10;83.50;;;;;;6190048;23;20524;-88
2022/03/12 09:48:07;;;;;;;9.90;5.20;;;12.20;84.50;;;;;;6172005;23;20012;-88
2022/03/12 09:50:33;;;;;;;13.00;6.05;;;12.20;84.30;;;;;;6227684;23;20009;-87
2022/03/12 09:52:59;;;;;;;9.60;5.45;;;12.30;84.10;;;;;;6214589;23;20000;-88
2022/03/12 09:55:24;;;;;;;10.43;5.15;;;12.40;84.00;;;;;;6219735;23;20004;-87
2022/03/12 09:57:50;;;;;;;10.10;5.60;;;12.50;84.20;;;;;;6194440;23;20032;-87
2022/03/12 10:00:18;;;;;;;7.15;4.90;;;12.50;83.70;;;;;;6193102;23;20008;-87
2022/03/12 10:02:44;;;;;;;9.88;5.70;;;12.60;83.40;;;;;;6168313;23;20005;-88
2022/03/12 10:05:11;;;;;;;9.57;4.95;;;12.70;83.70;;;;;;6191118;23;20019;-87
2022/03/12 10:07:37;;;;;;;8.90;5.35;;;12.70;83.80;;;;;;6165040;23;20008;-87
2022/03/12 10:10:04;;;;;;;7.72;4.95;;;12.80;84.10;;;;;;6165542;23;20012;-87
2022/03/12 10:12:30;;;;;;;9.65;5.18;;;12.80;83.50;;;;;;6169158;23;20009;-88
2022/03/12 10:14:56;;;;;;;9.20;5.15;;;12.80;83.40;;;;;;6193333;23;20274;-88
2022/03/12 10:17:21;;;;;;;8.02;4.80;;;12.90;83.90;;;;;;6191821;23;20004;-88
2022/03/12 10:19:47;;;;;;;8.18;4.25;;;12.90;83.80;;;;;;6168162;23;20095;-88
2022/03/12 10:22:14;;;;;;;8.02;4.50;;;12.90;82.90;;;;;;6167356;23;20087;-87
2022/03/12 10:24:40;;;;;;;8.52;4.28;;;13.00;83.40;;;;;;6191508;23;20399;-87
2022/03/12 10:27:06;;;;;;;10.00;4.50;;;13.00;84.00;;;;;;6166822;23;20070;-88
2022/03/12 10:29:34;;;;;;;6.10;3.80;;;13.00;82.40;;;;;;6191177;23;20181;-87
2022/03/12 10:35:05;;;;;;;10.82;4.60;;;13.10;82.50;;;;;;6162802;23;20094;-87
2022/03/12 10:37:32;;;;;;;8.77;4.55;;;13.10;82.30;;;;;;6142812;23;20009;-87
2022/03/12 10:40:06;;;;;;;7.70;3.95;;;13.20;81.70;;;;;;6192373;23;20008;-87
2022/03/12 10:42:32;;;;;;;7.85;4.47;;;13.20;81.20;;;;;;6191750;23;20028;-87
2022/03/12 10:47:43;;;;;;;7.95;2.95;;;13.30;80.20;;;;;;6127417;23;20018;-82
2022/03/12 10:50:20;;;;;;;9.70;3.63;;;13.40;77.70;;;;;;6094488;23;20005;-81
2022/03/12 10:52:49;;;;;;;7.90;3.22;;;13.40;77.80;;;;;;6127405;23;20029;-82
2022/03/12 10:55:25;;;;;;;8.05;3.65;;;13.40;78.10;;;;;;6101033;23;20010;-82
2022/03/12 10:58:04;;;;;;;8.13;3.38;;;13.40;77.70;;;;;;6101356;23;20012;-82
2022/03/12 11:00:32;;;;;;;9.82;3.42;;;13.50;77.50;;;;;;6127818;23;20488;-81
2022/03/12 11:03:03;;;;;;;10.98;4.10;;;13.50;77.60;;;;;;6127892;23;20034;-83
2022/03/12 11:05:34;;;;;;;7.45;3.15;;;13.50;77.60;;;;;;6100629;23;20027;-83
2022/03/12 11:08:32;;;;;;;8.70;4.35;;;13.50;77.80;;;;;;6100934;23;20014;-83
2022/03/12 11:11:13;;;;;;;9.50;4.25;;;13.50;78.50;;;;;;6107766;23;20033;-84
2022/03/12 11:13:44;;;;;;;8.05;3.70;;;13.50;77.60;;;;;;6127444;23;20058;-82
2022/03/12 11:16:12;;;;;;;;;;;13.50;78.30;;;;;;6101156;23;20014;-82
2022/03/12 11:18:51;;;;;;;10.75;4.18;;;13.50;78.00;;;;;;6124210;23;20222;-83
2022/03/12 11:21:37;;;;;;;9.10;4.10;;;13.50;77.80;;;;;;6123636;23;20034;-83
2022/03/12 11:24:17;;;;;;;7.10;3.60;;;13.60;79.00;;;;;;6100850;23;20002;-83
2022/03/12 11:27:01;;;;;;;6.47;3.95;;;13.60;77.80;;;;;;6127076;23;20001;-83
2022/03/12 11:29:28;;;;;;;6.70;3.70;;;13.70;77.20;;;;;;6101520;23;20002;-84
2022/03/12 11:31:57;;;;;;;7.45;3.67;;;13.70;76.70;;;;;;6101203;23;20417;-83
2022/03/12 11:34:25;;;;;;;7.30;3.63;;;13.80;77.00;;;;;;6101224;23;20018;-83
2022/03/12 11:36:57;;;;;;;9.32;4.18;;;13.80;77.50;;;;;;6101299;23;20002;-83
2022/03/12 11:39:36;;;;;;;7.45;3.53;;;13.80;77.30;;;;;;6126884;23;20022;-83
2022/03/12 11:42:15;;;;;;;6.25;3.75;;;13.90;78.60;;;;;;6101081;23;19998;-83
2022/03/12 11:45:18;;;;;;;8.05;3.80;;;14.00;77.60;;;;;;6131078;23;20002;-83
2022/03/12 11:47:45;;;;;;;8.05;3.67;;;14.20;77.10;;;;;;6135518;23;20410;-82
2022/03/12 11:50:18;;;;;;;7.20;3.60;;;14.30;76.70;;;;;;6181900;23;20285;-82
2022/03/12 11:52:46;;;;;;;10.38;4.10;;;14.40;74.90;;;;;;6155905;23;20049;-81
2022/03/12 11:55:17;;;;;;;8.63;4.35;;;14.40;75.10;;;;;;6130758;23;20092;-84
2022/03/12 11:57:46;;;;;;;7.95;4.07;;;14.50;75.30;;;;;;6155489;23;20028;-85
2022/03/12 12:00:28;;;;;;;8.85;4.55;;;14.50;75.80;;;;;;6155605;23;20001;-85
2022/03/12 12:02:55;;;;;;;10.63;4.72;;;14.60;76.20;;;;;;6161993;23;19997;-84
2022/03/12 12:05:23;;;;;;;9.48;3.85;;;14.60;76.90;;;;;;6155766;23;20028;-82
2022/03/12 12:07:51;;;;;;;9.55;4.45;;;14.70;76.70;;;;;;6180811;23;20010;-84
2022/03/12 12:10:19;;;;;;;8.18;4.35;;;14.70;75.00;;;;;;6180484;23;20013;-84
2022/03/12 12:12:47;;;;;;;8.02;4.18;;;14.70;73.80;;;;;;6182035;23;20000;-84
2022/03/12 12:15:22;;;;;;;8.05;4.72;;;14.70;74.60;;;;;;6178353;23;20005;-86
2022/03/12 12:17:48;;;;;;;8.60;4.50;;;14.70;75.20;;;;;;6151519;23;20012;-84
2022/03/12 12:20:16;;;;;;;8.25;4.38;;;14.80;75.60;;;;;;6163956;23;20005;-84
2022/03/12 12:22:42;;;;;;;9.25;4.50;;;14.90;75.60;;;;;;6164113;23;20029;-80
2022/03/12 12:25:09;;;;;;;9.20;3.95;;;14.90;75.60;;;;;;6157098;23;20069;-83
2022/03/12 12:27:52;;;;;;;11.77;5.03;;;15.00;75.20;;;;;;6154591;23;20085;-83
2022/03/12 12:30:28;;;;;;;8.65;4.30;;;15.00;74.40;;;;;;6154017;23;20124;-83
2022/03/12 12:32:56;;;;;;;8.27;3.90;;;15.00;74.10;;;;;;6155600;23;20005;-84
2022/03/12 12:35:23;;;;;;;9.40;5.03;;;15.00;74.40;;;;;;6154848;23;20081;-84
2022/03/12 12:37:58;;;;;;;7.50;4.72;;;15.00;73.80;;;;;;6152845;23;20132;-83
2022/03/12 12:40:42;;;;;;;9.10;4.63;;;15.00;75.20;;;;;;6153847;23;20416;-83
2022/03/12 12:43:10;;;;;;;9.30;4.30;;;15.10;74.60;;;;;;6153217;23;20305;-84
2022/03/12 12:45:56;;;;;;;9.65;4.10;;;15.10;73.20;;;;;;6153164;23;20344;-84
2022/03/12 12:48:41;;;;;;;7.03;3.40;;;15.20;72.20;;;;;;6153344;23;20002;-83
2022/03/12 12:51:20;;;;;;;6.40;3.80;;;15.20;72.20;;;;;;6152905;23;19997;-84
2022/03/12 12:53:54;;;;;;;8.27;3.95;;;15.20;72.00;;;;;;6153947;23;20011;-84
2022/03/12 12:56:28;;;;;;;6.43;3.95;;;15.20;72.10;;;;;;6159970;23;20099;-85